Trio, South Carolina
Current Conditions -  °F | °C
As of 11:15 AM on Sunday 23 Nov 2014 (Local Time) from KCKI Reporting Station
Light Rain Light Rain  
Wind Chill: 63°   Ceiling: 700
Heat Index: 63°   Visibility: 10mi
Dew Point: 63°   Wind: 14mph
Humidity: 100%   Direction: 100°E
Pressure: 30.08"   Gusts: 23mph
Location:  33.565°N, 79.8266°W
Report Text: KCKI 231615Z AUTO 10012G20KT 10SM -RA OVC007 17/17 A3008 RMK AO2
Loading
Personal Weather Stations






























Interactive Weather Map New forecast layout! Learn more

10-Day Weather Forecast

Advertisements
Track Severe Weather on mobile